Nearby METAR Reports

 

KOXC - Oxford/Waterbury, Connecticut, USA
Distance from station: SE 8mi, 12km
Updated: Fri, 31-Oct-2014 7:48pm EDT
Overcast
Overcast
 Wind from ENE
Wind: ENE 9 mph , 15 km/h
Temperature: 48°F , 9°C
Wind Chill: 44°F , 7°C
Dew Point: 36°F , 2°C
Humidity: 62%
Barometer: 29.95 inHg , 1014.2 hPa
Clouds: Overcast
Visibility: 10 miles , 16 km
Cloud details: Overcast 3000 ft
2014/10/31 23:48 KOXC 312348Z 06008KT 10SM OVC030 09/02 A2995
KDXR - Danbury, Connecticut, USA
Distance from station: SW 19mi, 30km
Updated: Fri, 31-Oct-2014 7:53pm EDT
Overcast
Overcast
 Wind from ENE
Wind: ENE 12 mph , 19 km/h
Temperature: 50°F , 10°C
Wind Chill: 45°F , 7°C
Dew Point: 36°F , 2°C
Humidity: 58%
Barometer: 29.94 inHg , 1013.9 hPa
Clouds: Overcast
Visibility: 10 miles , 16 km
Cloud details: Partly cloudy 3700 ft
Mostly cloudy 4700 ft
Overcast 8000 ft
2014/10/31 23:53 KDXR 312353Z 06010KT 10SM SCT037 BKN047 OVC080 10/02 A2994 RMK AO2 SLP138 T01000022 10117 20100 53005
 
KMMK - Meriden, Connecticut, USA
Distance from station: E 20mi, 33km
Updated: Fri, 31-Oct-2014 7:53pm EDT
Light rain, Overcast
Light rain, Overcast
 Wind from varies
Wind: varies 6 mph , 9 km/h
Temperature: 48°F , 9°C
Wind Chill: 45°F , 7°C
Dew Point: 43°F , 6°C
Humidity: 82%
Barometer: 29.96 inHg , 1014.6 hPa
Summary: Light rain
Clouds: Overcast
Visibility: 7 miles , 11 km
Cloud details: Overcast 3500 ft
2014/10/31 23:53 KMMK 312353Z AUTO VRB05KT 7SM -RA OVC035 09/06 A2996 RMK AO2 RAB20 SLP145 P0000 60000 T00890061 10122 20089 53011 TSNO
KBDR - Bridgeport, Connecticut, USA
Distance from station: S 27mi, 44km
Updated: Fri, 31-Oct-2014 8:00pm EDT
Light rain, Overcast
Light rain, Overcast
 Wind from NE
Wind: NE 15 mph , 24 km/h
Temperature: 52°F , 11°C
Dew Point: 43°F , 6°C
Humidity: 72%
Barometer: 29.93 inHg , 1013.5 hPa
Summary: Light rain
Clouds: Overcast
Visibility: 10 miles , 16 km
Cloud details: Mostly cloudy 2900 ft
Overcast 4100 ft
2014/11/01 00:00 KBDR 010000Z 04013KT 10SM -RA BKN029 OVC041 11/06 A2993 RMK AO2 P0000 T01110056
 
KHVN - New Haven/Tweed, Connecticut, USA
Distance from station: SE 27mi, 44km
Updated: Fri, 31-Oct-2014 7:53pm EDT
Light rain, Overcast
Light rain, Overcast
 Wind from NNE
Wind: NNE 7 mph , 11 km/h
Temperature: 52°F , 11°C
Dew Point: 43°F , 6°C
Humidity: 72%
Barometer: 29.95 inHg , 1014.2 hPa
Summary: Light rain
Clouds: Overcast
Visibility: 10 miles , 16 km
Cloud details: Overcast 2500 ft
2014/10/31 23:53 KHVN 312353Z 03006KT 10SM -RA OVC025 11/06 A2995 RMK AO2 RAB36 SLP140 P0000 60000 T01060056 10133 20106 53011
KHFD - Hartford/Brainar, Connecticut, USA
Distance from station: ENE 32mi, 52km
Updated: Fri, 31-Oct-2014 7:53pm EDT
Light rain, Overcast
Light rain, Overcast
 Wind from varies
Wind: varies 7 mph , 11 km/h
Temperature: 48°F , 9°C
Wind Chill: 45°F , 7°C
Dew Point: 43°F , 6°C
Humidity: 82%
Barometer: 29.97 inHg , 1014.9 hPa
Summary: Light rain
Clouds: Overcast
Visibility: 10 miles , 16 km
Cloud details: Few Clouds 2800 ft
Overcast 3800 ft
2014/10/31 23:53 KHFD 312353Z VRB06KT 10SM -RA FEW028 OVC038 09/06 A2997 RMK AO2 RAB11 SLP148 P0002 60002 T00890061 10117 20089 53011
 
KPOU - Poughkeepsie, New York, USA
Distance from station: W 35mi, 56km
Updated: Fri, 31-Oct-2014 7:53pm EDT
Overcast
Overcast
 Wind from NNE
Wind: NNE 5 mph , 7 km/h
Temperature: 50°F , 10°C
Wind Chill: 48°F , 9°C
Dew Point: 37°F , 3°C
Humidity: 62%
Barometer: 29.93 inHg , 1013.5 hPa
Clouds: Overcast
Visibility: 10 miles , 16 km
Cloud details: Overcast 4100 ft
2014/10/31 23:53 KPOU 312353Z 03004KT 10SM OVC041 10/03 A2993 RMK AO2 SLP132 T01000033 10128 20100 53006
KBDL - Windsor Locks, Connecticut, USA
Distance from station: NE 38mi, 62km
Updated: Fri, 31-Oct-2014 7:51pm EDT
Light rain, Overcast
Light rain, Overcast
 Wind from ENE
Wind: ENE 8 mph , 13 km/h
Temperature: 48°F , 9°C
Wind Chill: 44°F , 7°C
Dew Point: 41°F , 5°C
Humidity: 76%
Barometer: 29.97 inHg , 1014.9 hPa
Summary: Light rain
Clouds: Overcast
Visibility: 9 miles , 14 km
Cloud details: Few Clouds 2700 ft
Mostly cloudy 3500 ft
Overcast 5000 ft
2014/10/31 23:51 KBDL 312351Z 06007KT 9SM -RA FEW027 BKN035 OVC050 09/05 A2997 RMK AO2 SLP150 P0001 60001 T00890050 10117 20089 53014
 
KSNC - Chester, Connecticut, USA
Distance from station: ESE 39mi, 63km
Updated: Fri, 31-Oct-2014 7:35pm EDT
Overcast
Overcast
 Wind from NE
Wind: NE 7 mph , 11 km/h
Temperature: 46°F , 8°C
Wind Chill: 42°F , 6°C
Dew Point: 45°F , 7°C
Humidity: 93%
Barometer: 29.95 inHg , 1014.2 hPa
Clouds: Overcast
Visibility: 9 miles , 14 km
Cloud details: Partly cloudy 1300 ft
Overcast 2300 ft
2014/10/31 23:35 KSNC 312335Z AUTO 04006KT 9SM SCT013 OVC023 08/07 A2995 RMK AO2 P0002
KHPN - White Plains, New York, USA
Distance from station: SW 42mi, 67km
Updated: Fri, 31-Oct-2014 7:56pm EDT
Mostly cloudy
Mostly cloudy
 Wind from NE
Wind: NE 5 mph , 7 km/h
Temperature: 50°F , 10°C
Wind Chill: 48°F , 9°C
Dew Point: 37°F , 3°C
Humidity: 62%
Barometer: 29.91 inHg , 1012.9 hPa
Clouds: Mostly cloudy
Visibility: 10 miles , 16 km
Cloud details: Mostly cloudy 8000 ft
2014/10/31 23:56 KHPN 312356Z 04004KT 10SM BKN080 10/03 A2991 RMK AO2 SLP130 T01000033 10117 20100 51004
 
KSWF - Newburgh/Stewart, New York, USA
Distance from station: W 45mi, 72km
Updated: Fri, 31-Oct-2014 7:45pm EDT
Overcast
Overcast
 Wind from NNE
Wind: NNE 7 mph , 11 km/h
Temperature: 48°F , 9°C
Wind Chill: 45°F , 7°C
Dew Point: 39°F , 4°C
Humidity: 71%
Barometer: 29.94 inHg , 1013.9 hPa
Clouds: Overcast
Visibility: 10 miles , 16 km
Cloud details: Overcast 4000 ft
2014/10/31 23:45 KSWF 312345Z 02006KT 10SM OVC040 09/04 A2994
KBAF - Westfield, Massachusetts, USA
Distance from station: NNE 50mi, 80km
Updated: Fri, 31-Oct-2014 7:53pm EDT
Light rain, Overcast
Light rain, Overcast
 Wind from ENE
Wind: ENE 5 mph , 7 km/h
Temperature: 48°F , 9°C
Wind Chill: 46°F , 8°C
Dew Point: 39°F , 4°C
Humidity: 71%
Barometer: 29.99 inHg , 1015.6 hPa
Summary: Light rain
Clouds: Overcast
Visibility: 10 miles , 16 km
Cloud details: Mostly cloudy 3300 ft
Overcast 4000 ft
2014/10/31 23:53 KBAF 312353Z 06004KT 10SM -RA BKN033 OVC040 09/04 A2999 RMK AO2 RAB21 SLP158 P0000 60000 T00890044 10111 20083 53014